Time;durP1;ratioP1;P1;durP2;ratioP2;P2;SDS_P1;SDS_P2;PMS_P1;PMS_P2;Temp;Humidity;BMP_temperature;BMP_pressure;BME280_temperature;BME280_humidity;BME280_pressure;Samples;Min_cycle;Max_cycle;Signal;HPM_P1;HPM_P2
2021/03/15 00:00:07;;;;;;;;;;;;;;;3.31;68.18;98046.44;5032574;28;19928;-66
2021/03/15 00:02:32;;;;;;;;;;;;;;;3.33;67.78;98032.13;5033733;28;20366;-67
2021/03/15 00:04:57;;;;;;;;;;;;;;;3.29;68.19;98032.97;5038077;28;20007;-67
2021/03/15 00:07:23;;;;;;;;;;;;;;;3.32;67.88;98052.38;5038053;28;19921;-67
2021/03/15 00:09:48;;;;;;;;;;;;;;;3.34;67.91;98048.16;5039779;28;19926;-66
2021/03/15 00:12:13;;;;;;;;;;;;;;;3.29;68.62;98048.16;5036647;28;20476;-66
2021/03/15 00:14:39;;;;;;;;;;;;;;;3.32;68.06;98065.03;5037894;28;19956;-66
2021/03/15 00:17:04;;;;;;;;;;;;;;;3.34;68.05;98054.06;5037885;28;20260;-66
2021/03/15 00:19:29;;;;;;;;;;;;;;;3.27;68.06;98070.09;5038852;28;19939;-66
2021/03/15 00:21:55;;;;;;;;;;;;;;;3.32;67.88;98054.91;5036946;28;20305;-66
2021/03/15 00:24:20;;;;;;;;;;;;;;;3.32;68.15;98043.09;5035452;28;19925;-66
2021/03/15 00:26:45;;;;;;;;;;;;;;;3.36;67.59;98049.00;5039266;28;20233;-66
2021/03/15 00:29:10;;;;;;;;;;;;;;;3.37;67.29;98051.53;5035065;28;19931;-66
2021/03/15 00:31:36;;;;;;;;;;;;;;;3.37;66.95;98051.53;5034963;28;19917;-66
2021/03/15 00:34:01;;;;;;;;;;;;;;;3.37;67.08;98054.06;5035185;28;19917;-68
2021/03/15 00:36:26;;;;;;;;;;;;;;;3.40;67.61;98051.53;5036144;28;19921;-66
2021/03/15 00:38:51;;;;;;;;;;;;;;;3.34;67.30;98056.59;5036311;28;19925;-66
2021/03/15 00:41:17;;;;;;;;;;;;;;;3.39;67.12;98061.69;5037732;28;19976;-66
2021/03/15 00:43:42;;;;;;;;;;;;;;;3.38;67.15;98050.69;5033663;28;19964;-66
2021/03/15 00:46:08;;;;;;;;;;;;;;;3.36;67.83;98054.91;5037453;28;19928;-66
2021/03/15 00:48:33;;;;;;;;;;;;;;;3.32;67.34;98043.09;5033208;28;19999;-67
2021/03/15 00:50:58;;;;;;;;;;;;;;;3.30;67.36;98044.78;5037876;28;20277;-66
2021/03/15 00:53:23;;;;;;;;;;;;;;;3.29;67.82;98045.63;5034614;28;19921;-66
2021/03/15 00:55:49;;;;;;;;;;;;;;;3.34;67.07;98033.81;5036975;28;20275;-66
2021/03/15 00:58:14;;;;;;;;;;;;;;;3.34;67.14;98026.22;5036144;28;19917;-66
2021/03/15 01:00:40;;;;;;;;;;;;;;;3.35;67.68;98022.84;5036724;28;20202;-66
2021/03/15 01:03:06;;;;;;;;;;;;;;;3.34;67.87;98027.91;5033463;28;20293;-66
2021/03/15 01:05:42;;;;;;;;;;;;;;;3.33;67.47;98028.72;5036650;28;19927;-67
2021/03/15 01:08:08;;;;;;;;;;;;;;;3.36;67.69;98016.91;5034546;28;20190;-66
2021/03/15 01:10:35;;;;;;;;;;;;;;;3.43;67.45;98011.00;5034705;28;19960;-66
2021/03/15 01:13:01;;;;;;;;;;;;;;;3.40;67.35;98030.41;5031023;28;20284;-66
2021/03/15 01:15:26;;;;;;;;;;;;;;;3.40;67.62;98030.41;5034310;28;20020;-65
2021/03/15 01:17:51;;;;;;;;;;;;;;;3.34;68.32;98032.97;5037970;28;19917;-66
2021/03/15 01:20:17;;;;;;;;;;;;;;;3.36;67.71;98024.50;5031844;28;19944;-66
2021/03/15 01:22:42;;;;;;;;;;;;;;;3.32;68.23;98029.56;5029296;28;19925;-66
2021/03/15 01:25:08;;;;;;;;;;;;;;;3.35;68.26;98027.91;5034710;28;19913;-66
2021/03/15 01:27:33;;;;;;;;;;;;;;;3.36;68.17;98033.78;5037084;28;19924;-66
2021/03/15 01:29:59;;;;;;;;;;;;;;;3.42;67.58;98026.19;5034469;28;19913;-66
2021/03/15 01:32:24;;;;;;;;;;;;;;;3.46;67.88;98017.75;5034455;28;19913;-66
2021/03/15 01:34:49;;;;;;;;;;;;;;;3.44;67.73;98024.50;5034371;28;19949;-66
2021/03/15 01:37:15;;;;;;;;;;;;;;;3.42;68.31;98016.91;5036762;28;20044;-66
2021/03/15 01:39:40;;;;;;;;;;;;;;;3.37;68.08;98028.72;5035849;28;19928;-66
2021/03/15 01:42:07;;;;;;;;;;;;;;;3.35;67.88;98017.78;5034736;28;19925;-66
2021/03/15 01:44:33;;;;;;;;;;;;;;;3.38;67.92;98029.59;5036217;28;20202;-66
2021/03/15 01:46:58;;;;;;;;;;;;;;;3.33;68.09;98018.59;5034361;28;19917;-66
2021/03/15 01:49:23;;;;;;;;;;;;;;;3.34;67.96;98033.81;5034566;28;20271;-65
2021/03/15 01:51:49;;;;;;;;;;;;;;;3.34;68.41;98026.22;5030848;28;19913;-66
2021/03/15 01:54:15;;;;;;;;;;;;;;;3.34;68.18;98021.16;5033142;28;20361;-66
2021/03/15 01:56:41;;;;;;;;;;;;;;;3.36;68.64;98024.50;5035996;28;19913;-66
2021/03/15 01:59:07;;;;;;;;;;;;;;;3.33;68.80;98034.66;5036077;28;20262;-66
2021/03/15 02:01:32;;;;;;;;;;;;;;;3.31;68.66;98033.78;5031347;28;19921;-65
2021/03/15 02:03:58;;;;;;;;;;;;;;;3.27;68.67;98026.22;5035194;28;19992;-66
2021/03/15 02:06:23;;;;;;;;;;;;;;;3.31;68.93;98032.97;5034138;28;20255;-65
2021/03/15 02:08:48;;;;;;;;;;;;;;;3.28;68.98;98028.72;5032481;28;19921;-65
2021/03/15 02:11:40;;;;;;;;;;;;;;;3.27;68.79;98036.34;5033983;28;19963;-67
2021/03/15 02:14:13;;;;;;;;;;;;;;;3.19;69.62;98027.03;5016485;28;20502;-65
2021/03/15 02:16:47;;;;;;;;;;;;;;;3.15;69.67;98027.88;5014616;28;20186;-66
2021/03/15 02:19:33;;;;;;;;;;;;;;;3.12;69.33;98027.91;5013732;28;19921;-67
2021/03/15 02:22:14;;;;;;;;;;;;;;;3.14;69.47;98025.38;5014117;28;19978;-66
2021/03/15 02:24:58;;;;;;;;;;;;;;;3.15;69.41;98032.94;5015202;28;19921;-66
2021/03/15 02:27:29;;;;;;;;;;;;;;;3.15;69.05;98029.56;5012266;28;20351;-66
2021/03/15 02:30:23;;;;;;;;;;;;;;;3.14;69.22;98041.38;5013512;28;20334;-66
2021/03/15 02:32:54;;;;;;;;;;;;;;;3.13;69.76;98032.13;5009162;28;20267;-66
2021/03/15 02:35:21;;;;;;;;;;;;;;;3.14;69.48;98033.78;5016019;28;19946;-67
2021/03/15 02:37:57;;;;;;;;;;;;;;;3.09;69.42;98027.06;5012570;28;19949;-67
2021/03/15 02:40:31;;;;;;;;;;;;;;;3.00;69.82;98040.53;4996173;28;19917;-66
2021/03/15 02:42:59;;;;;;;;;;;;;;;2.98;69.98;98033.78;5014990;28;19967;-65
2021/03/15 02:45:25;;;;;;;;;;;;;;;3.00;70.18;98034.63;5014021;28;20323;-66
2021/03/15 02:47:51;;;;;;;;;;;;;;;3.01;69.84;98026.19;5013664;28;19928;-66
2021/03/15 02:50:17;;;;;;;;;;;;;;;3.09;68.99;98032.97;4998906;28;19956;-67
2021/03/15 02:52:47;;;;;;;;;;;;;;;3.06;69.23;98032.09;5014563;28;19964;-67
2021/03/15 02:55:16;;;;;;;;;;;;;;;3.11;69.42;98031.25;5014584;28;19924;-66
2021/03/15 02:57:43;;;;;;;;;;;;;;;3.10;69.20;98027.03;5013032;28;19921;-66
2021/03/15 03:00:10;;;;;;;;;;;;;;;3.16;69.18;98036.34;5013475;28;20305;-66
2021/03/15 03:02:36;;;;;;;;;;;;;;;3.14;69.28;98031.25;5010520;28;20301;-66
2021/03/15 03:05:05;;;;;;;;;;;;;;;3.29;68.23;98032.97;5016060;28;19933;-66
2021/03/15 03:07:30;;;;;;;;;;;;;;;3.29;68.41;98030.44;5011100;28;19918;-66
2021/03/15 03:09:56;;;;;;;;;;;;;;;3.32;68.08;98032.94;5015487;28;19955;-66
2021/03/15 03:12:22;;;;;;;;;;;;;;;3.30;68.15;98033.81;5008238;28;19999;-65
2021/03/15 03:14:48;;;;;;;;;;;;;;;3.32;68.00;98027.88;5014405;28;19921;-66
2021/03/15 03:17:14;;;;;;;;;;;;;;;3.33;67.77;98023.66;5010765;28;19921;-65
2021/03/15 03:19:40;;;;;;;;;;;;;;;3.31;68.14;98021.13;5015108;28;19921;-66
2021/03/15 03:22:07;;;;;;;;;;;;;;;3.36;67.69;98029.56;5012456;28;20255;-65
2021/03/15 03:24:33;;;;;;;;;;;;;;;3.48;67.20;98021.16;5015516;28;20000;-65
2021/03/15 03:26:58;;;;;;;;;;;;;;;3.49;66.88;98016.06;5011525;28;20347;-66
2021/03/15 03:29:25;;;;;;;;;;;;;;;3.43;67.17;98017.75;5030978;28;19932;-67
2021/03/15 03:31:51;;;;;;;;;;;;;;;3.45;67.06;98013.53;5014003;28;19945;-66
2021/03/15 03:34:16;;;;;;;;;;;;;;;3.43;67.76;98013.53;5012477;28;20188;-66
2021/03/15 03:36:42;;;;;;;;;;;;;;;3.35;67.95;98005.09;5010585;28;20210;-65
2021/03/15 03:39:08;;;;;;;;;;;;;;;3.47;67.32;98006.78;5013717;28;19932;-66
2021/03/15 03:41:33;;;;;;;;;;;;;;;3.41;67.38;98014.38;5024286;28;19921;-66
2021/03/15 03:43:59;;;;;;;;;;;;;;;3.45;67.12;98006.78;5030736;28;19917;-66
2021/03/15 03:46:24;;;;;;;;;;;;;;;3.46;67.39;98005.94;5036620;28;20267;-67
2021/03/15 03:48:50;;;;;;;;;;;;;;;3.48;67.04;98008.47;5048706;28;19913;-67
2021/03/15 03:51:16;;;;;;;;;;;;;;;3.45;67.24;98014.38;5034368;28;19917;-65
2021/03/15 03:54:08;;;;;;;;;;;;;;;3.50;67.18;98012.69;5031861;28;20224;-66
2021/03/15 03:56:38;;;;;;;;;;;;;;;3.51;67.09;98014.38;5034529;28;19917;-65
2021/03/15 03:59:04;;;;;;;;;;;;;;;3.50;67.79;98010.16;5033059;28;20000;-66
2021/03/15 04:01:35;;;;;;;;;;;;;;;3.53;67.15;98017.75;5033370;28;19929;-66
2021/03/15 04:04:01;;;;;;;;;;;;;;;3.59;67.08;98006.75;5030352;28;19963;-65
2021/03/15 04:06:28;;;;;;;;;;;;;;;3.62;67.33;98011.81;5031929;28;20015;-66
2021/03/15 04:09:01;;;;;;;;;;;;;;;3.60;67.26;98014.38;5033431;28;20270;-66
2021/03/15 04:11:29;;;;;;;;;;;;;;;3.64;66.91;98015.22;5033272;28;19932;-66
2021/03/15 04:13:55;;;;;;;;;;;;;;;3.63;66.92;98016.88;5033520;28;20031;-66
2021/03/15 04:16:25;;;;;;;;;;;;;;;3.69;66.99;98011.78;5032868;28;20317;-66
2021/03/15 04:18:51;;;;;;;;;;;;;;;3.61;67.10;98015.19;5031783;28;19928;-66
2021/03/15 04:21:23;;;;;;;;;;;;;;;3.64;67.03;98010.97;5032787;28;20254;-66
2021/03/15 04:23:50;;;;;;;;;;;;;;;3.57;66.98;98019.41;5030658;28;19925;-66
2021/03/15 04:26:16;;;;;;;;;;;;;;;3.57;67.55;98019.41;5031358;28;19921;-65
2021/03/15 04:28:43;;;;;;;;;;;;;;;3.51;67.22;98014.38;5051755;28;20174;-66
2021/03/15 04:31:09;;;;;;;;;;;;;;;3.52;66.85;98031.25;5029745;28;19932;-66
2021/03/15 04:33:35;;;;;;;;;;;;;;;3.51;66.79;98031.28;5033789;28;19925;-67
2021/03/15 04:36:01;;;;;;;;;;;;;;;3.49;67.27;98035.47;5031936;28;20202;-66
2021/03/15 04:38:26;;;;;;;;;;;;;;;3.41;67.29;98035.50;5030204;28;19921;-66
2021/03/15 04:40:52;;;;;;;;;;;;;;;3.42;67.73;98028.72;5033515;28;20302;-66
2021/03/15 04:43:17;;;;;;;;;;;;;;;3.38;67.40;98027.91;5032625;28;19925;-68
2021/03/15 04:45:44;;;;;;;;;;;;;;;3.31;67.27;98036.31;5047727;28;19917;-66
2021/03/15 04:48:15;;;;;;;;;;;;;;;3.32;67.52;98032.94;5047472;28;19921;-66
2021/03/15 04:50:42;;;;;;;;;;;;;;;3.24;68.00;98034.63;5032034;28;19913;-67
2021/03/15 04:53:07;;;;;;;;;;;;;;;3.26;67.86;98038.03;5035169;28;19932;-66
2021/03/15 04:55:33;;;;;;;;;;;;;;;3.24;67.94;98047.31;5037940;28;19967;-66
2021/03/15 04:58:01;;;;;;;;;;;;;;;3.23;67.91;98043.06;5037185;28;20026;-67
2021/03/15 05:00:28;;;;;;;;;;;;;;;3.20;67.50;98048.16;5033808;28;20261;-67
2021/03/15 05:02:54;;;;;;;;;;;;;;;3.20;67.56;98046.47;5035288;28;19932;-67
2021/03/15 05:05:20;;;;;;;;;;;;;;;3.21;67.01;98050.69;5034583;28;19960;-67
2021/03/15 05:07:46;;;;;;;;;;;;;;;3.16;67.56;98046.47;5034965;28;20309;-67
2021/03/15 05:10:13;;;;;;;;;;;;;;;3.17;67.68;98048.16;5036696;28;20086;-67
2021/03/15 05:12:39;;;;;;;;;;;;;;;3.13;66.85;98054.91;5033641;28;20012;-67
2021/03/15 05:15:07;;;;;;;;;;;;;;;3.21;67.16;98065.03;5051313;28;20004;-67
2021/03/15 05:17:34;;;;;;;;;;;;;;;3.27;66.67;98070.09;5034108;28;19917;-66
2021/03/15 05:20:00;;;;;;;;;;;;;;;3.28;66.63;98074.31;5037133;28;19917;-67
2021/03/15 05:22:26;;;;;;;;;;;;;;;3.40;66.30;98078.53;5048724;28;19925;-66
2021/03/15 05:24:51;;;;;;;;;;;;;;;3.50;65.96;98068.44;5036232;28;20155;-66
2021/03/15 05:27:17;;;;;;;;;;;;;;;3.53;65.61;98067.56;5031348;28;19962;-67
2021/03/15 05:29:43;;;;;;;;;;;;;;;3.62;64.72;98068.41;5035986;28;19956;-68
2021/03/15 05:32:08;;;;;;;;;;;;;;;3.64;64.17;98059.13;5033270;28;19936;-66
2021/03/15 05:34:34;;;;;;;;;;;;;;;3.58;64.14;98043.91;5037526;28;19921;-66
2021/03/15 05:37:01;;;;;;;;;;;;;;;3.66;63.83;98054.91;5033903;28;19913;-66
2021/03/15 05:39:27;;;;;;;;;;;;;;;3.63;63.96;98066.72;5034669;28;20216;-67
2021/03/15 05:41:59;;;;;;;;;;;;;;;3.65;64.60;98057.41;5035659;28;20003;-67
2021/03/15 05:44:43;;;;;;;;;;;;;;;3.64;64.32;98050.69;5036686;28;20076;-67
2021/03/15 05:47:27;;;;;;;;;;;;;;;3.55;65.10;98048.16;5035236;28;19936;-67
2021/03/15 05:50:11;;;;;;;;;;;;;;;3.67;65.10;98041.38;5051039;28;20266;-66
2021/03/15 05:52:56;;;;;;;;;;;;;;;3.65;64.96;98044.75;5035188;28;19917;-67
2021/03/15 05:55:25;;;;;;;;;;;;;;;3.62;65.03;98045.59;5032706;28;20039;-67
2021/03/15 05:58:06;;;;;;;;;;;;;;;3.62;65.02;98042.22;5034565;28;19917;-67
2021/03/15 06:00:32;;;;;;;;;;;;;;;3.61;65.90;98055.72;5035693;28;20219;-67
2021/03/15 06:03:08;;;;;;;;;;;;;;;3.64;65.31;98046.47;5035643;28;19967;-67
2021/03/15 06:05:35;;;;;;;;;;;;;;;3.60;65.40;98054.91;5032962;28;19927;-67
2021/03/15 06:08:07;;;;;;;;;;;;;;;3.63;65.61;98044.78;5036403;28;20189;-68
2021/03/15 06:10:35;;;;;;;;;;;;;;;3.67;65.78;98046.44;5050905;28;20146;-66
2021/03/15 06:13:05;;;;;;;;;;;;;;;3.79;65.45;98043.03;5035156;28;19917;-66
2021/03/15 06:15:30;;;;;;;;;;;;;;;3.91;64.71;98044.72;5035574;28;19932;-67
2021/03/15 06:17:56;;;;;;;;;;;;;;;4.05;64.49;98043.00;5035575;28;19917;-67
2021/03/15 06:20:22;;;;;;;;;;;;;;;4.23;63.82;98032.78;5035179;28;19914;-66
2021/03/15 06:22:48;;;;;;;;;;;;;;;4.16;63.83;98026.03;5049031;28;19921;-66
2021/03/15 06:25:13;;;;;;;;;;;;;;;4.21;63.80;98038.72;5031549;28;19932;-64
2021/03/15 06:27:40;;;;;;;;;;;;;;;4.24;63.12;98042.09;5033181;28;19913;-69
2021/03/15 06:30:05;;;;;;;;;;;;;;;4.34;63.00;98038.66;5035818;28;19917;-68
2021/03/15 06:32:31;;;;;;;;;;;;;;;4.54;62.63;98043.66;5036660;28;20048;-68
2021/03/15 06:34:57;;;;;;;;;;;;;;;4.75;62.18;98032.56;5040933;28;19949;-68
2021/03/15 06:37:23;;;;;;;;;;;;;;;4.83;62.15;98046.06;5039993;28;19976;-67
2021/03/15 06:39:49;;;;;;;;;;;;;;;4.97;61.29;98037.47;5034967;28;19917;-68
2021/03/15 06:42:16;;;;;;;;;;;;;;;4.79;61.51;98030.00;5031722;28;20100;-67
2021/03/15 06:44:42;;;;;;;;;;;;;;;4.97;61.68;98031.56;5034745;28;20325;-69
2021/03/15 06:47:08;;;;;;;;;;;;;;;4.79;61.76;98027.47;5033625;28;19929;-67
2021/03/15 06:49:33;;;;;;;;;;;;;;;4.86;61.93;98025.72;5037170;28;20289;-68
2021/03/15 06:51:59;;;;;;;;;;;;;;;4.82;61.54;98029.13;5030827;28;19921;-69
2021/03/15 06:54:25;;;;;;;;;;;;;;;4.98;61.54;98029.00;5035282;28;19935;-68
2021/03/15 06:57:10;;;;;;;;;;;;;;;4.97;61.31;98039.19;5031536;28;20008;-69
2021/03/15 06:59:46;;;;;;;;;;;;;;;5.17;60.38;98039.91;5036083;28;19917;-69
2021/03/15 07:02:13;;;;;;;;;;;;;;;5.12;60.57;98028.94;5031945;28;19968;-69
2021/03/15 07:04:38;;;;;;;;;;;;;;;5.02;60.13;98024.75;5033740;28;20195;-68
2021/03/15 07:07:04;;;;;;;;;;;;;;;5.16;59.41;98022.97;5034751;28;19917;-69
2021/03/15 07:09:32;;;;;;;;;;;;;;;5.16;59.46;98030.59;5032031;28;19966;-68
2021/03/15 07:12:01;;;;;;;;;;;;;;;5.09;60.43;98035.72;5034375;28;19925;-68
2021/03/15 07:14:27;;;;;;;;;;;;;;;5.10;60.57;98035.69;5032297;28;19922;-69
2021/03/15 07:16:59;;;;;;;;;;;;;;;5.35;60.08;98036.34;5033798;28;19931;-68
2021/03/15 07:19:24;;;;;;;;;;;;;;;5.39;58.73;98043.94;5035202;28;19959;-68
2021/03/15 07:21:50;;;;;;;;;;;;;;;5.42;59.06;98038.88;5032384;28;19972;-67
2021/03/15 07:24:15;;;;;;;;;;;;;;;5.44;58.95;98026.13;5034205;28;19913;-67
2021/03/15 07:26:45;;;;;;;;;;;;;;;5.51;58.69;98028.63;5034335;28;19917;-69
2021/03/15 07:29:14;;;;;;;;;;;;;;;5.63;58.18;98031.91;5031500;28;19917;-68
2021/03/15 07:31:43;;;;;;;;;;;;;;;5.89;57.67;98033.38;5033240;28;19917;-69
2021/03/15 07:34:10;;;;;;;;;;;;;;;5.67;57.93;98025.94;5030538;28;19917;-69
2021/03/15 07:36:50;;;;;;;;;;;;;;;5.55;57.34;98021.81;5033643;28;19917;-69
2021/03/15 07:39:16;;;;;;;;;;;;;;;5.55;57.50;98021.81;5033483;28;19913;-66
2021/03/15 07:41:46;;;;;;;;;;;;;;;5.67;58.00;98021.69;5027274;28;20189;-66
2021/03/15 07:44:19;;;;;;;;;;;;;;;5.71;57.60;98020.81;5032710;28;19921;-66
2021/03/15 07:46:47;;;;;;;;;;;;;;;5.91;57.60;98023.16;5035254;28;20360;-67
2021/03/15 07:49:26;;;;;;;;;;;;;;;6.03;56.91;98020.50;5030779;28;19913;-68
2021/03/15 07:51:53;;;;;;;;;;;;;;;6.12;57.11;98027.19;5065364;28;20043;-66
2021/03/15 07:54:28;;;;;;;;;;;;;;;6.13;56.66;98023.78;5067359;28;19917;-66
2021/03/15 07:57:12;;;;;;;;;;;;;;;6.14;54.86;98033.97;5032171;28;20003;-67
2021/03/15 07:59:39;;;;;;;;;;;;;;;6.12;55.53;98020.38;5033200;28;19925;-66
2021/03/15 08:02:05;;;;;;;;;;;;;;;6.07;56.22;98022.13;5033140;28;19917;-66
2021/03/15 08:04:30;;;;;;;;;;;;;;;6.19;55.75;98036.44;5063346;28;19936;-67
2021/03/15 08:06:56;;;;;;;;;;;;;;;6.27;55.22;98034.66;5031945;28;19921;-68
2021/03/15 08:09:21;;;;;;;;;;;;;;;6.32;54.93;98028.63;5032348;28;19913;-68
2021/03/15 08:11:47;;;;;;;;;;;;;;;6.54;54.25;98026.66;5031839;28;19927;-67
2021/03/15 08:14:12;;;;;;;;;;;;;;;6.55;54.57;98037.69;5031955;28;19928;-67
2021/03/15 08:16:38;;;;;;;;;;;;;;;6.66;54.76;98023.97;5034356;28;19916;-67
2021/03/15 08:19:04;;;;;;;;;;;;;;;6.77;54.68;98024.69;5030471;28;19917;-67
2021/03/15 08:21:33;;;;;;;;;;;;;;;7.04;54.45;98014.97;5065490;28;19972;-67
2021/03/15 08:23:58;;;;;;;;;;;;;;;7.07;54.41;98015.75;5026584;28;20198;-67
2021/03/15 08:26:24;;;;;;;;;;;;;;;7.07;52.84;98027.66;5025710;28;19925;-67
2021/03/15 08:28:54;;;;;;;;;;;;;;;7.01;54.61;98018.38;5027012;28;19961;-68
2021/03/15 08:31:22;;;;;;;;;;;;;;;6.91;54.61;98032.13;5027996;28;19932;-66
2021/03/15 08:33:49;;;;;;;;;;;;;;;6.75;54.45;98011.09;5030056;28;19929;-67
2021/03/15 08:36:15;;;;;;;;;;;;;;;6.88;54.31;98001.59;5027302;28;19964;-67
2021/03/15 08:38:40;;;;;;;;;;;;;;;6.98;54.39;98010.78;5028736;28;19923;-66
2021/03/15 08:41:20;;;;;;;;;;;;;;;7.04;54.58;97997.97;5029127;28;19925;-67
2021/03/15 08:43:49;;;;;;;;;;;;;;;7.22;54.49;97996.81;5029758;28;20274;-66
2021/03/15 08:46:19;;;;;;;;;;;;;;;6.88;54.60;97997.31;5027714;28;19917;-67
2021/03/15 08:48:44;;;;;;;;;;;;;;;6.82;54.78;97997.44;5060161;28;19917;-66
2021/03/15 08:51:10;;;;;;;;;;;;;;;6.94;54.17;97993.88;5024608;28;19928;-68
2021/03/15 08:53:44;;;;;;;;;;;;;;;6.93;54.62;97991.31;5028829;28;19927;-67
2021/03/15 08:56:12;;;;;;;;;;;;;;;6.96;54.58;97999.75;5028007;28;19955;-67
2021/03/15 08:58:37;;;;;;;;;;;;;;;6.92;54.77;97999.84;5025127;28;20249;-67
2021/03/15 09:01:04;;;;;;;;;;;;;;;7.11;53.99;97989.34;5028065;28;20005;-66
2021/03/15 09:03:46;;;;;;;;;;;;;;;7.10;53.89;97992.75;5026400;28;19936;-67
2021/03/15 09:06:11;;;;;;;;;;;;;;;7.29;52.25;97980.56;5022792;28;19917;-67
2021/03/15 09:08:55;;;;;;;;;;;;;;;7.22;53.61;97995.09;5026198;28;19967;-66
2021/03/15 09:11:38;;;;;;;;;;;;;;;7.08;53.64;97996.22;5025019;28;19941;-66
2021/03/15 09:16:53;;;;;;;;;;;;;;;7.14;53.23;98011.38;5024160;28;20337;-66
2021/03/15 09:19:18;;;;;;;;;;;;;;;7.55;52.45;97982.69;5025737;28;19925;-66
2021/03/15 09:21:45;;;;;;;;;;;;;;;7.47;51.06;97976.88;5028122;28;19929;-66
2021/03/15 09:24:30;;;;;;;;;;;;;;;7.38;51.93;97977.88;5058119;28;19913;-68
2021/03/15 09:26:55;;;;;;;;;;;;;;;7.66;51.90;97965.47;5022386;28;19964;-68
2021/03/15 09:29:20;;;;;;;;;;;;;;;7.32;52.51;97963.50;5027650;28;20031;-68
2021/03/15 09:32:05;;;;;;;;;;;;;;;7.01;51.69;97971.66;5023412;28;20012;-68
2021/03/15 09:34:31;;;;;;;;;;;;;;;7.04;51.46;97956.34;5024285;28;19920;-68
2021/03/15 09:36:58;;;;;;;;;;;;;;;7.10;51.09;97957.06;5025909;28;19913;-68
2021/03/15 09:39:25;;;;;;;;;;;;;;;7.31;51.92;97951.63;5029141;28;20258;-68
2021/03/15 09:41:50;;;;;;;;;;;;;;;7.66;52.13;97957.81;5025057;28;19925;-70
2021/03/15 09:44:21;;;;;;;;;;;;;;;7.16;51.82;97951.91;5026369;28;19924;-68
2021/03/15 09:46:48;;;;;;;;;;;;;;;6.87;52.31;97952.31;5026064;28;20000;-67
2021/03/15 09:49:30;;;;;;;;;;;;;;;7.12;52.97;97947.72;5031916;28;20235;-68
2021/03/15 09:51:55;;;;;;;;;;;;;;;7.24;53.13;97949.22;5024525;28;19936;-67
2021/03/15 09:54:37;;;;;;;;;;;;;;;7.60;51.83;97925.59;5024481;28;20007;-69
2021/03/15 09:57:02;;;;;;;;;;;;;;;7.61;52.51;97929.00;5025425;28;19917;-67
2021/03/15 09:59:27;;;;;;;;;;;;;;;7.62;52.62;97951.94;5043152;28;20217;-65
2021/03/15 10:01:53;;;;;;;;;;;;;;;7.66;51.75;97934.84;5025387;28;19917;-66
2021/03/15 10:04:19;;;;;;;;;;;;;;;7.50;51.58;97923.25;5023177;28;19918;-66
2021/03/15 10:06:45;;;;;;;;;;;;;;;7.41;52.52;97938.72;5024753;28;20035;-66
2021/03/15 10:09:10;;;;;;;;;;;;;;;7.60;52.60;97924.75;5042965;28;20157;-67
2021/03/15 10:11:42;;;;;;;;;;;;;;;7.83;51.53;97920.06;5027971;28;19953;-66
2021/03/15 10:14:08;;;;;;;;;;;;;;;7.96;50.65;97931.72;5026661;28;20008;-65
2021/03/15 10:16:33;;;;;;;;;;;;;;;8.26;50.93;97922.59;5025836;28;20044;-66
2021/03/15 10:18:58;;;;;;;;;;;;;;;7.77;50.08;97912.53;5025830;28;19917;-66
2021/03/15 10:21:24;;;;;;;;;;;;;;;7.63;50.64;97919.63;5030198;28;19929;-66
2021/03/15 10:23:50;;;;;;;;;;;;;;;7.80;50.58;97913.34;5059105;28;19913;-67
2021/03/15 10:26:16;;;;;;;;;;;;;;;8.10;50.25;97919.53;5027355;28;19935;-67
2021/03/15 10:28:41;;;;;;;;;;;;;;;8.05;48.61;97911.13;5059999;28;19931;-67
2021/03/15 10:31:07;;;;;;;;;;;;;;;8.12;47.58;97907.56;5031335;28;19913;-68
2021/03/15 10:33:32;;;;;;;;;;;;;;;8.07;48.84;97893.19;5025340;28;19913;-69
2021/03/15 10:35:58;;;;;;;;;;;;;;;8.01;47.23;97912.06;5026464;28;19913;-68
2021/03/15 10:38:23;;;;;;;;;;;;;;;7.85;47.52;97913.22;5025338;28;19917;-70
2021/03/15 10:40:50;;;;;;;;;;;;;;;7.77;47.26;97885.31;5024700;28;19922;-67
2021/03/15 10:43:16;;;;;;;;;;;;;;;7.75;47.23;97888.75;5037071;28;19933;-69
2021/03/15 10:45:41;;;;;;;;;;;;;;;7.77;46.95;97892.09;5055840;28;20299;-70
2021/03/15 10:48:07;;;;;;;;;;;;;;;8.11;46.45;97869.28;5024953;28;19960;-69
2021/03/15 10:50:37;;;;;;;;;;;;;;;8.27;45.93;97875.78;5029348;28;19917;-70
2021/03/15 10:53:15;;;;;;;;;;;;;;;8.29;47.01;97881.69;5023841;28;19914;-69
2021/03/15 10:55:41;;;;;;;;;;;;;;;8.41;47.59;97878.03;5027648;28;19917;-69
2021/03/15 10:58:08;;;;;;;;;;;;;;;8.36;47.06;97870.47;5022570;28;20023;-70
2021/03/15 11:00:34;;;;;;;;;;;;;;;8.37;47.81;97871.31;5023891;28;19913;-70
2021/03/15 11:03:00;;;;;;;;;;;;;;;7.88;47.17;97872.34;5021082;28;19925;-68
2021/03/15 11:05:25;;;;;;;;;;;;;;;7.88;47.46;97867.25;5024332;28;20170;-68
2021/03/15 11:07:52;;;;;;;;;;;;;;;8.42;46.24;97864.38;5024802;28;19917;-69
2021/03/15 11:10:22;;;;;;;;;;;;;;;8.76;45.77;97865.28;5028546;28;19925;-69
2021/03/15 11:12:52;;;;;;;;;;;;;;;8.57;44.48;97871.72;5027250;28;19937;-68
2021/03/15 11:15:27;;;;;;;;;;;;;;;8.60;43.82;97866.53;5024129;28;19921;-67
2021/03/15 11:18:12;;;;;;;;;;;;;;;8.80;45.75;97860.94;5027500;28;19921;-69
2021/03/15 11:20:38;;;;;;;;;;;;;;;8.85;44.27;97865.06;5023916;28;20012;-67
2021/03/15 11:23:03;;;;;;;;;;;;;;;8.95;44.53;97848.63;5025419;28;20051;-70
2021/03/15 11:25:29;;;;;;;;;;;;;;;9.18;44.48;97850.59;5054681;28;20309;-68
2021/03/15 11:28:02;;;;;;;;;;;;;;;9.44;43.27;97843.06;5025314;28;19923;-69
2021/03/15 11:30:27;;;;;;;;;;;;;;;9.07;43.71;97848.31;5023895;28;19917;-69
2021/03/15 11:33:03;;;;;;;;;;;;;;;8.71;43.45;97844.94;5022737;28;19917;-69
2021/03/15 11:35:29;;;;;;;;;;;;;;;8.71;43.13;97836.44;5020608;28;20195;-69
2021/03/15 11:37:57;;;;;;;;;;;;;;;8.74;42.91;97846.59;5041863;28;19924;-68
2021/03/15 11:40:26;;;;;;;;;;;;;;;8.76;43.43;97831.22;5024610;28;19936;-69
2021/03/15 11:42:54;;;;;;;;;;;;;;;8.61;44.89;97843.47;5026663;28;19976;-69
2021/03/15 11:45:20;;;;;;;;;;;;;;;8.23;45.36;97846.88;5024410;28;20493;-67
2021/03/15 11:47:45;;;;;;;;;;;;;;;8.50;45.20;97852.28;5023472;28;20028;-68
2021/03/15 11:50:11;;;;;;;;;;;;;;;8.91;45.37;97846.19;5022018;28;19917;-68
2021/03/15 11:52:39;;;;;;;;;;;;;;;8.44;45.24;97850.72;5023771;28;20012;-68
2021/03/15 11:55:05;;;;;;;;;;;;;;;8.59;44.89;97841.84;5025964;28;19914;-69
2021/03/15 11:57:30;;;;;;;;;;;;;;;8.47;46.30;97842.97;5023935;28;19917;-68
2021/03/15 11:59:56;;;;;;;;;;;;;;;8.25;46.68;97837.50;5034708;28;19940;-68
2021/03/15 12:02:21;;;;;;;;;;;;;;;8.14;46.35;97852.22;5027048;28;19929;-68
2021/03/15 12:04:46;;;;;;;;;;;;;;;8.30;46.67;97834.88;5029475;28;19917;-69
2021/03/15 12:07:12;;;;;;;;;;;;;;;8.42;46.02;97826.91;5031845;28;19921;-70
2021/03/15 12:09:37;;;;;;;;;;;;;;;8.35;46.00;97811.78;5032557;28;19924;-70
2021/03/15 12:12:03;;;;;;;;;;;;;;;8.57;45.16;97816.31;5032471;28;19956;-69
2021/03/15 12:14:28;;;;;;;;;;;;;;;8.53;44.37;97796.03;5032542;28;19960;-70
2021/03/15 12:16:53;;;;;;;;;;;;;;;8.79;45.08;97791.09;5027008;28;19945;-69
2021/03/15 12:19:19;;;;;;;;;;;;;;;8.84;45.43;97786.69;5031951;28;19917;-69
2021/03/15 12:21:44;;;;;;;;;;;;;;;8.65;44.37;97785.50;5028803;28;20314;-70
2021/03/15 12:24:09;;;;;;;;;;;;;;;8.69;43.42;97784.53;5026931;28;20022;-69
2021/03/15 12:26:35;;;;;;;;;;;;;;;8.96;43.08;97776.16;5026657;28;20605;-70
2021/03/15 12:29:00;;;;;;;;;;;;;;;9.31;42.16;97779.47;5046997;28;19917;-72
2021/03/15 12:31:26;;;;;;;;;;;;;;;9.17;42.32;97775.56;5061245;28;19927;-70
2021/03/15 12:33:51;;;;;;;;;;;;;;;9.44;41.19;97775.69;5030297;28;20032;-70
2021/03/15 12:36:16;;;;;;;;;;;;;;;9.50;40.65;97772.97;5061794;28;19921;-71
2021/03/15 12:38:42;;;;;;;;;;;;;;;9.63;41.87;97774.31;5048730;28;19913;-71
2021/03/15 12:41:07;;;;;;;;;;;;;;;9.83;41.25;97766.03;5033882;28;19937;-70
2021/03/15 12:43:32;;;;;;;;;;;;;;;9.66;40.92;97773.38;5034491;28;19922;-71
2021/03/15 12:45:58;;;;;;;;;;;;;;;9.35;41.57;97769.13;5033526;28;20198;-71
2021/03/15 12:48:24;;;;;;;;;;;;;;;9.25;42.12;97775.38;5030265;28;19964;-70
2021/03/15 12:50:49;;;;;;;;;;;;;;;8.98;42.99;97771.00;5032941;28;19972;-71
2021/03/15 12:53:15;;;;;;;;;;;;;;;8.94;43.93;97761.75;5062638;28;20171;-70
2021/03/15 12:55:40;;;;;;;;;;;;;;;9.39;44.16;97754.53;5031821;28;20275;-70
2021/03/15 12:58:06;;;;;;;;;;;;;;;9.55;42.32;97761.72;5032090;28;19932;-70
2021/03/15 13:00:31;;;;;;;;;;;;;;;9.77;41.60;97761.94;5049321;28;20354;-69
2021/03/15 13:02:57;;;;;;;;;;;;;;;9.98;42.09;97760.44;5031903;28;19921;-69